Aérodrome :







RETROUVEZ-NOUS SUR...

 
LOGIN :

S'inscrire | Disclaimer

   EN    FR    IT 

 









Légende :    VFR   VFR Marginal   IFR   IFR Intensif   IFR Très Intensif
Visi : 
Plafond : 
>= 8 km
>= 3000ft
5 à 8 km
1000 à 3000 ft
1500m à 5 km
500 à 1000 ft
800 à 1500m
200 à 500 ft
< 800m
< 200 ft
Symboles :   Orages  Brouillard  Fortes neiges  Fortes précipitations  Vent > 20 kt






- Altitude de l'aérodrome : 1009 ft
- Code IATA : ORH


KORH - Worcester Regional

DERNIER METAR :
  • 221154Z 21011KT 10SM OVC055 06/02 A2976 RMK AO2 SLP084 60000 T00610017 10061 20033 56021

METARs EXPIRÉS :
  • 221054Z 22011KT 10SM BKN043 OVC050 06/02 A2978 RMK AO2 SLP091 T00560017
  • 220954Z AUTO 22011KT 10SM OVC060 06/02 A2979 RMK AO2 RAE0857 SLP097 P0000 T00560017

TAF KORH
Valide du 22 à 12h jusqu'au 23 à 12h UTC


221122Z 2212/2312 22012KT P6SM OVC045
FM221400 23014G22KT P6SM OVC040
FM221800 25017G27KT 6SM -SHRA OVC035
FM222100 28020G32KT P6SM SCT045
FM230600 28015G25KT P6SM SKC



MET'MAP, la Météo Aéronautique d'un coup d'oeil ! - Copyright ORBIFLY Décembre 2007 - Disclaimer

ORBIFLY MET'MAP TEAM :

Programmation & Développement : Alexandra Zaïnal
Conception & Développement : Baudouin d'Aumeries
Co-Programmation & Développement : Marc-Olivier Méhu
Soutien technique & logistique : Manuel Goepfert

Contact : metmap@orbifly.com




SOURCES & CREDITS :

   NOAA